Flight Track Log - Related Links

Times and Time Zones

All times are in EDT time to prevent confusion due to time zone crossing. See the N193PP flight status page for this flight to view local times or setup timezone preferences in your user account.

Time Position Orientation Groundspeed Altitude Reporting Facility
EDT Latitude Longitude Course Direction KTS MPH feet Rate Location/Type
Mon 03:35:00 PM 30.9206 -85.6657 11° North  Level FlightAware Approximate
Mon 03:36:00 PM 31.0020 -85.6470 11° North  Level FlightAware Approximate
Mon 03:36:29 PM 30.6083 -85.5547 16° North 295 339 17,300  Level Jacksonville Center
Mon 03:37:00 PM 31.0834 -85.6282 11° North  Level FlightAware Approximate
Mon 03:37:29 PM 30.6700 -85.4936 40° Northeast 340 391 18,500  Level Jacksonville Center
Mon 03:38:00 PM 31.1635 -85.6009 16° North  Level Estimated
Mon 03:38:29 PM 30.7361 -85.4303 39° Northeast 339 390 20,700  Level Jacksonville Center
Mon 03:39:00 PM 31.2435 -85.5736 16° North  Level Estimated
Mon 03:39:29 PM 30.8083 -85.3644 38° Northeast 326 375 21,000  Level Jacksonville Center
Mon 03:40:00 PM 31.3236 -85.5462 16° North  Level Estimated
Mon 03:40:29 PM 30.8850 -85.2867 41° Northeast 340 391 21,000  Level Jacksonville Center
Mon 03:41:00 PM 31.4036 -85.5188 16° North  Level Estimated
Mon 03:41:29 PM 30.9119 -85.1808 73° East 340 391 22,500  Level Jacksonville Center
Mon 03:42:29 PM 30.9119 -85.0669 90° East 322 371 23,000 250 Climbing Jacksonville Center
Mon 03:43:29 PM 30.9158 -84.9483 88° East 343 395 23,000  Level Jacksonville Center
Mon 03:44:29 PM 30.9200 -84.8178 88° East 371 427 23,000  Level Jacksonville Center
Mon 03:45:29 PM 30.9822 -84.7003 58° Northeast 377 434 23,000  Level Jacksonville Center
Mon 03:46:29 PM 31.0506 -84.6022 51° Northeast 371 427 23,000  Level Jacksonville Center
Mon 03:47:29 PM 31.1369 -84.5308 35° Northeast 366 421 23,000  Level Jacksonville Center
Mon 03:48:29 PM 31.2392 -84.5522 350° North 332 382 23,000 -350 Level Jacksonville Center
Mon 03:49:29 PM 31.3389 -84.5903 342° North 337 388 22,300 -349 Descending Jacksonville Center
Mon 03:51:21 PM 31.5239 -84.6575 343° North 365 420 22,000 -105 Descending Atlanta Center
Mon 03:52:21 PM 31.6239 -84.6925 343° North 365 420 22,000  Level Atlanta Center
Mon 03:53:21 PM 31.7217 -84.7272 343° North 365 420 22,000  Level Atlanta Center
Mon 03:54:21 PM 31.8197 -84.7622 343° North 364 419 22,000  Level Atlanta Center
Mon 03:55:21 PM 31.9156 -84.7972 343° North 364 419 22,000  Level Atlanta Center
Mon 03:56:21 PM 32.0175 -84.8325 344° North 364 419 22,000  Level Atlanta Center
Mon 03:57:21 PM 32.1175 -84.8703 342° North 364 419 22,000  Level Atlanta Center
Mon 03:58:21 PM 32.2175 -84.9081 342° North 364 419 22,000  Level Atlanta Center
Mon 03:59:21 PM 32.3089 -84.9358 346° North 364 419 22,000  Level Atlanta Center
Mon 04:00:21 PM 32.4069 -84.9714 343° North 369 425 22,000  Level Atlanta Center
Mon 04:01:21 PM 32.5047 -85.0067 343° North 364 419 22,000 -650 Level Atlanta Center
Mon 04:02:21 PM 32.6044 -85.0450 342° North 364 419 20,700  Descending Atlanta Center
Mon 04:03:21 PM 32.7025 -85.0806 343° North 364 419 22,000 -1,750 Climbing Atlanta Center
Mon 04:04:21 PM 32.8042 -85.1214 341° North 359 413 17,200 -3,100 Descending Atlanta Center
Mon 04:05:21 PM 32.8750 -85.1444 345° North 346 398 15,800 -1,600 Descending Atlanta Center
Mon 04:06:21 PM 32.9644 -85.1753 344° North 315 362 14,000 -1,400 Descending Atlanta Center
Mon 04:07:21 PM 33.0414 -85.2036 343° North 298 343 13,000 -850 Descending Atlanta Center
Mon 04:08:21 PM 33.1314 -85.1897 North 285 328 12,300 -800 Descending Atlanta Center
Mon 04:09:21 PM 33.2089 -85.1636 16° North 285 328 11,400 -650 Descending Atlanta Center
Mon 04:10:21 PM 33.2781 -85.1419 15° North 291 335 11,000 -200 Descending Atlanta Center
Mon 04:11:21 PM 33.3575 -85.1183 14° North 285 328 11,000 -600 Level Atlanta Center
Mon 04:12:21 PM 33.4328 -85.0992 12° North 280 322 9,800 -1,200 Descending Atlanta Center
Mon 04:13:21 PM 33.5100 -85.0853 North 275 316 8,600 -1,200 Descending Atlanta Center
Mon 04:14:21 PM 33.5833 -85.0686 11° North 275 316 7,400 -1,250 Descending Atlanta Center
Mon 04:15:21 PM 33.6422 -85.0119 39° Northeast 268 308 6,100 -1,250 Descending Atlanta Center
Mon 04:16:21 PM 33.6992 -84.9478 43° Northeast 263 303 4,900 -1,050 Descending Atlanta Center
Mon 04:17:21 PM 33.7475 -84.8908 44° Northeast 251 289 4,000 -587 Descending Atlanta Center
Mon 04:17:53 PM 33.7667 -84.8667 46° Northeast 226 260 4,000 -196 Level Atlanta TRACON
Mon 04:18:53 PM 33.8167 -84.8167 40° Northeast 203 234 3,700 -500 Descending Atlanta TRACON
Mon 04:19:53 PM 33.8500 -84.7667 51° Northeast 201 231 3,000 -400 Descending Atlanta TRACON
Mon 04:20:53 PM 33.9000 -84.7333 29° Northeast 189 217 2,900 -250 Descending Atlanta TRACON
Mon 04:21:53 PM 33.9333 -84.6833 51° Northeast 208 239 2,500 -200 Descending Atlanta TRACON
Mon 04:22:53 PM 33.9667 -84.6333 51° Northeast 181 208 2,500 -99 Level Atlanta TRACON
Mon 04:23:54 PM 33.9833 -84.5833 68° East 147 169 2,300 -450 Descending Atlanta TRACON
Mon 04:24:53 PM 34.0000 -84.5667 40° Northeast 140 161 1,600 -712 Descending Atlanta TRACON

Login

Don't have an account? Register now (free) for customized features, flight alerts, and more!